sensor_id;sensor_type;location;lat;lon;timestamp;temperature;humidity
4312;DHT22;2169;49.086;9.284;2023-06-01T00:01:53;18.50;37.70
4312;DHT22;2169;49.086;9.284;2023-06-01T00:04:20;18.50;37.70
4312;DHT22;2169;49.086;9.284;2023-06-01T00:06:48;18.50;37.70
4312;DHT22;2169;49.086;9.284;2023-06-01T00:09:15;18.50;37.60
4312;DHT22;2169;49.086;9.284;2023-06-01T00:11:42;18.60;38.30
4312;DHT22;2169;49.086;9.284;2023-06-01T00:14:09;18.50;37.60
4312;DHT22;2169;49.086;9.284;2023-06-01T00:16:36;18.60;37.70
4312;DHT22;2169;49.086;9.284;2023-06-01T00:19:02;18.50;37.50
4312;DHT22;2169;49.086;9.284;2023-06-01T00:21:29;18.50;37.50
4312;DHT22;2169;49.086;9.284;2023-06-01T00:23:59;18.50;37.50
4312;DHT22;2169;49.086;9.284;2023-06-01T00:26:26;18.50;37.50
4312;DHT22;2169;49.086;9.284;2023-06-01T00:28:55;18.50;37.40
4312;DHT22;2169;49.086;9.284;2023-06-01T00:31:22;18.50;37.40
4312;DHT22;2169;49.086;9.284;2023-06-01T00:33:49;18.60;37.40
4312;DHT22;2169;49.086;9.284;2023-06-01T00:36:17;18.50;37.30
4312;DHT22;2169;49.086;9.284;2023-06-01T00:38:43;18.60;37.30
4312;DHT22;2169;49.086;9.284;2023-06-01T00:41:11;18.50;37.30
4312;DHT22;2169;49.086;9.284;2023-06-01T00:43:38;18.50;37.30
4312;DHT22;2169;49.086;9.284;2023-06-01T00:46:05;18.40;37.20
4312;DHT22;2169;49.086;9.284;2023-06-01T00:48:32;18.40;37.20
4312;DHT22;2169;49.086;9.284;2023-06-01T00:50:59;18.40;37.10
4312;DHT22;2169;49.086;9.284;2023-06-01T00:53:26;18.50;37.20
4312;DHT22;2169;49.086;9.284;2023-06-01T00:55:52;18.40;37.10
4312;DHT22;2169;49.086;9.284;2023-06-01T00:58:21;18.40;37.00
4312;DHT22;2169;49.086;9.284;2023-06-01T01:00:47;18.50;37.10
4312;DHT22;2169;49.086;9.284;2023-06-01T01:03:15;18.40;37.00
4312;DHT22;2169;49.086;9.284;2023-06-01T01:05:43;18.40;37.00
4312;DHT22;2169;49.086;9.284;2023-06-01T01:08:13;18.40;37.00
4312;DHT22;2169;49.086;9.284;2023-06-01T01:10:43;18.40;37.10
4312;DHT22;2169;49.086;9.284;2023-06-01T01:13:15;18.40;37.20
4312;DHT22;2169;49.086;9.284;2023-06-01T01:15:51;18.30;37.20
4312;DHT22;2169;49.086;9.284;2023-06-01T01:18:24;18.40;37.50
4312;DHT22;2169;49.086;9.284;2023-06-01T01:20:58;18.30;37.60
4312;DHT22;2169;49.086;9.284;2023-06-01T01:23:48;18.20;37.80
4312;DHT22;2169;49.086;9.284;2023-06-01T01:26:24;18.20;38.10
4312;DHT22;2169;49.086;9.284;2023-06-01T01:28:59;18.10;38.20
4312;DHT22;2169;49.086;9.284;2023-06-01T01:31:26;18.10;38.50
4312;DHT22;2169;49.086;9.284;2023-06-01T01:33:55;18.00;38.50
4312;DHT22;2169;49.086;9.284;2023-06-01T01:36:23;17.90;38.70
4312;DHT22;2169;49.086;9.284;2023-06-01T01:38:50;17.90;39.00
4312;DHT22;2169;49.086;9.284;2023-06-01T01:41:17;17.80;39.20
4312;DHT22;2169;49.086;9.284;2023-06-01T01:43:44;17.80;39.40
4312;DHT22;2169;49.086;9.284;2023-06-01T01:46:19;17.70;39.60
4312;DHT22;2169;49.086;9.284;2023-06-01T01:48:52;17.70;39.80
4312;DHT22;2169;49.086;9.284;2023-06-01T01:51:26;17.60;39.90
4312;DHT22;2169;49.086;9.284;2023-06-01T01:53:55;17.60;40.00
4312;DHT22;2169;49.086;9.284;2023-06-01T01:56:22;17.50;40.10
4312;DHT22;2169;49.086;9.284;2023-06-01T01:58:50;17.40;40.10
4312;DHT22;2169;49.086;9.284;2023-06-01T02:01:18;17.40;40.20
4312;DHT22;2169;49.086;9.284;2023-06-01T02:03:45;17.30;40.40
4312;DHT22;2169;49.086;9.284;2023-06-01T02:06:12;17.30;40.60
4312;DHT22;2169;49.086;9.284;2023-06-01T02:08:39;17.20;40.70
4312;DHT22;2169;49.086;9.284;2023-06-01T02:11:06;17.10;40.80
4312;DHT22;2169;49.086;9.284;2023-06-01T02:13:32;17.10;40.90
4312;DHT22;2169;49.086;9.284;2023-06-01T02:15:59;17.10;41.10
4312;DHT22;2169;49.086;9.284;2023-06-01T02:18:27;17.00;41.10
4312;DHT22;2169;49.086;9.284;2023-06-01T02:20:55;16.90;41.20
4312;DHT22;2169;49.086;9.284;2023-06-01T02:23:21;16.80;41.30
4312;DHT22;2169;49.086;9.284;2023-06-01T02:25:48;16.80;41.50
4312;DHT22;2169;49.086;9.284;2023-06-01T02:28:15;16.70;41.70
4312;DHT22;2169;49.086;9.284;2023-06-01T02:30:42;16.70;41.80
4312;DHT22;2169;49.086;9.284;2023-06-01T02:33:09;16.60;41.90
4312;DHT22;2169;49.086;9.284;2023-06-01T02:35:38;16.50;42.00
4312;DHT22;2169;49.086;9.284;2023-06-01T02:38:05;16.50;42.20
4312;DHT22;2169;49.086;9.284;2023-06-01T02:40:32;16.40;42.30
4312;DHT22;2169;49.086;9.284;2023-06-01T02:42:58;16.40;42.40
4312;DHT22;2169;49.086;9.284;2023-06-01T02:45:25;16.30;42.50
4312;DHT22;2169;49.086;9.284;2023-06-01T02:47:52;16.20;43.20
4312;DHT22;2169;49.086;9.284;2023-06-01T02:50:18;16.20;42.80
4312;DHT22;2169;49.086;9.284;2023-06-01T02:52:47;16.10;42.80
4312;DHT22;2169;49.086;9.284;2023-06-01T02:55:13;16.10;43.10
4312;DHT22;2169;49.086;9.284;2023-06-01T02:57:40;16.00;42.60
4312;DHT22;2169;49.086;9.284;2023-06-01T03:00:08;16.00;43.20
4312;DHT22;2169;49.086;9.284;2023-06-01T03:02:41;15.90;43.40
4312;DHT22;2169;49.086;9.284;2023-06-01T03:05:08;15.90;44.20
4312;DHT22;2169;49.086;9.284;2023-06-01T03:07:38;15.80;43.70
4312;DHT22;2169;49.086;9.284;2023-06-01T03:10:07;15.70;43.90
4312;DHT22;2169;49.086;9.284;2023-06-01T03:12:34;15.70;44.10
4312;DHT22;2169;49.086;9.284;2023-06-01T03:15:01;15.60;44.10
4312;DHT22;2169;49.086;9.284;2023-06-01T03:17:29;15.60;44.20
4312;DHT22;2169;49.086;9.284;2023-06-01T03:19:57;15.60;44.30
4312;DHT22;2169;49.086;9.284;2023-06-01T03:22:23;15.60;44.40
4312;DHT22;2169;49.086;9.284;2023-06-01T03:24:50;15.60;44.50
4312;DHT22;2169;49.086;9.284;2023-06-01T03:27:21;15.60;44.70
4312;DHT22;2169;49.086;9.284;2023-06-01T03:29:48;15.50;44.70
4312;DHT22;2169;49.086;9.284;2023-06-01T03:32:15;15.50;44.80
4312;DHT22;2169;49.086;9.284;2023-06-01T03:34:41;15.50;44.90
4312;DHT22;2169;49.086;9.284;2023-06-01T03:37:08;15.40;45.00
4312;DHT22;2169;49.086;9.284;2023-06-01T03:39:35;15.40;45.10
4312;DHT22;2169;49.086;9.284;2023-06-01T03:42:02;15.40;45.20
4312;DHT22;2169;49.086;9.284;2023-06-01T03:44:30;15.30;45.30
4312;DHT22;2169;49.086;9.284;2023-06-01T03:46:56;15.30;45.50
4312;DHT22;2169;49.086;9.284;2023-06-01T03:49:23;15.30;45.60
4312;DHT22;2169;49.086;9.284;2023-06-01T03:51:50;15.20;45.60
4312;DHT22;2169;49.086;9.284;2023-06-01T03:54:17;15.20;45.80
4312;DHT22;2169;49.086;9.284;2023-06-01T03:56:44;15.20;46.00
4312;DHT22;2169;49.086;9.284;2023-06-01T03:59:11;15.10;46.00
4312;DHT22;2169;49.086;9.284;2023-06-01T04:01:39;15.10;46.20
4312;DHT22;2169;49.086;9.284;2023-06-01T04:04:08;15.00;46.40
4312;DHT22;2169;49.086;9.284;2023-06-01T04:06:35;15.00;46.60
4312;DHT22;2169;49.086;9.284;2023-06-01T04:09:02;14.90;46.70
4312;DHT22;2169;49.086;9.284;2023-06-01T04:11:32;14.90;46.90
4312;DHT22;2169;49.086;9.284;2023-06-01T04:13:59;14.90;47.10
4312;DHT22;2169;49.086;9.284;2023-06-01T04:16:26;14.80;47.10
4312;DHT22;2169;49.086;9.284;2023-06-01T04:18:54;14.80;47.30
4312;DHT22;2169;49.086;9.284;2023-06-01T04:21:21;14.80;47.50
4312;DHT22;2169;49.086;9.284;2023-06-01T04:23:48;14.80;47.70
4312;DHT22;2169;49.086;9.284;2023-06-01T04:26:15;14.80;47.80
4312;DHT22;2169;49.086;9.284;2023-06-01T04:28:43;14.80;48.10
4312;DHT22;2169;49.086;9.284;2023-06-01T04:31:11;14.70;48.10
4312;DHT22;2169;49.086;9.284;2023-06-01T04:33:42;14.70;48.20
4312;DHT22;2169;49.086;9.284;2023-06-01T04:36:11;14.70;48.40
4312;DHT22;2169;49.086;9.284;2023-06-01T04:38:40;14.70;48.40
4312;DHT22;2169;49.086;9.284;2023-06-01T04:41:07;14.80;48.60
4312;DHT22;2169;49.086;9.284;2023-06-01T04:43:35;14.80;48.60
4312;DHT22;2169;49.086;9.284;2023-06-01T04:46:04;14.80;48.50
4312;DHT22;2169;49.086;9.284;2023-06-01T04:48:31;14.80;48.40
4312;DHT22;2169;49.086;9.284;2023-06-01T04:50:58;14.90;48.40
4312;DHT22;2169;49.086;9.284;2023-06-01T04:53:26;15.00;48.30
4312;DHT22;2169;49.086;9.284;2023-06-01T04:55:53;15.00;48.20
4312;DHT22;2169;49.086;9.284;2023-06-01T04:58:21;15.10;48.20
4312;DHT22;2169;49.086;9.284;2023-06-01T05:00:48;15.20;48.20
4312;DHT22;2169;49.086;9.284;2023-06-01T05:03:16;15.20;48.20
4312;DHT22;2169;49.086;9.284;2023-06-01T05:05:43;15.30;48.10
4312;DHT22;2169;49.086;9.284;2023-06-01T05:08:10;15.30;48.10
4312;DHT22;2169;49.086;9.284;2023-06-01T05:10:39;15.40;48.10
4312;DHT22;2169;49.086;9.284;2023-06-01T05:13:06;15.40;48.10
4312;DHT22;2169;49.086;9.284;2023-06-01T05:15:32;15.50;48.10
4312;DHT22;2169;49.086;9.284;2023-06-01T05:17:59;15.50;48.00
4312;DHT22;2169;49.086;9.284;2023-06-01T05:20:26;15.60;48.00
4312;DHT22;2169;49.086;9.284;2023-06-01T05:22:52;15.70;48.00
4312;DHT22;2169;49.086;9.284;2023-06-01T05:25:19;15.70;47.90
4312;DHT22;2169;49.086;9.284;2023-06-01T05:27:47;15.80;48.00
4312;DHT22;2169;49.086;9.284;2023-06-01T05:30:14;15.90;48.00
4312;DHT22;2169;49.086;9.284;2023-06-01T05:32:41;15.90;48.00
4312;DHT22;2169;49.086;9.284;2023-06-01T05:35:08;16.00;48.00
4312;DHT22;2169;49.086;9.284;2023-06-01T05:37:35;16.00;48.00
4312;DHT22;2169;49.086;9.284;2023-06-01T05:40:02;16.20;48.20
4312;DHT22;2169;49.086;9.284;2023-06-01T05:42:32;16.30;48.20
4312;DHT22;2169;49.086;9.284;2023-06-01T05:45:00;16.40;48.20
4312;DHT22;2169;49.086;9.284;2023-06-01T05:47:27;16.60;48.20
4312;DHT22;2169;49.086;9.284;2023-06-01T05:49:54;16.70;48.20
4312;DHT22;2169;49.086;9.284;2023-06-01T05:52:21;16.90;48.10
4312;DHT22;2169;49.086;9.284;2023-06-01T05:54:47;17.10;48.00
4312;DHT22;2169;49.086;9.284;2023-06-01T05:57:16;17.30;48.00
4312;DHT22;2169;49.086;9.284;2023-06-01T05:59:43;17.50;47.90
4312;DHT22;2169;49.086;9.284;2023-06-01T06:02:12;17.70;47.90
4312;DHT22;2169;49.086;9.284;2023-06-01T06:04:39;17.90;47.80
4312;DHT22;2169;49.086;9.284;2023-06-01T06:07:06;18.10;47.80
4312;DHT22;2169;49.086;9.284;2023-06-01T06:09:33;18.30;47.70
4312;DHT22;2169;49.086;9.284;2023-06-01T06:12:00;18.50;47.40
4312;DHT22;2169;49.086;9.284;2023-06-01T06:14:27;18.70;47.20
4312;DHT22;2169;49.086;9.284;2023-06-01T06:16:53;18.90;46.80
4312;DHT22;2169;49.086;9.284;2023-06-01T06:19:21;19.10;46.40
4312;DHT22;2169;49.086;9.284;2023-06-01T06:21:48;19.30;46.20
4312;DHT22;2169;49.086;9.284;2023-06-01T06:24:15;19.50;45.90
4312;DHT22;2169;49.086;9.284;2023-06-01T06:26:42;19.70;45.90
4312;DHT22;2169;49.086;9.284;2023-06-01T06:29:08;19.90;45.70
4312;DHT22;2169;49.086;9.284;2023-06-01T06:31:36;20.10;45.40
4312;DHT22;2169;49.086;9.284;2023-06-01T06:34:02;20.30;45.10
4312;DHT22;2169;49.086;9.284;2023-06-01T06:36:30;20.60;45.00
4312;DHT22;2169;49.086;9.284;2023-06-01T06:38:57;20.80;44.70
4312;DHT22;2169;49.086;9.284;2023-06-01T06:41:25;20.90;44.40
4312;DHT22;2169;49.086;9.284;2023-06-01T06:43:51;21.20;44.30
4312;DHT22;2169;49.086;9.284;2023-06-01T06:46:18;21.40;44.10
4312;DHT22;2169;49.086;9.284;2023-06-01T06:48:45;21.60;43.80
4312;DHT22;2169;49.086;9.284;2023-06-01T06:51:12;21.80;43.60
4312;DHT22;2169;49.086;9.284;2023-06-01T06:53:40;22.00;43.30
4312;DHT22;2169;49.086;9.284;2023-06-01T06:56:06;22.20;43.00
4312;DHT22;2169;49.086;9.284;2023-06-01T06:58:34;22.40;42.80
4312;DHT22;2169;49.086;9.284;2023-06-01T07:01:01;22.60;42.50
4312;DHT22;2169;49.086;9.284;2023-06-01T07:03:30;22.80;42.30
4312;DHT22;2169;49.086;9.284;2023-06-01T07:05:57;23.00;41.90
4312;DHT22;2169;49.086;9.284;2023-06-01T07:08:23;23.20;41.40
4312;DHT22;2169;49.086;9.284;2023-06-01T07:10:53;23.40;41.30
4312;DHT22;2169;49.086;9.284;2023-06-01T07:13:21;23.60;41.10
4312;DHT22;2169;49.086;9.284;2023-06-01T07:15:48;23.80;41.00
4312;DHT22;2169;49.086;9.284;2023-06-01T07:18:14;24.00;40.70
4312;DHT22;2169;49.086;9.284;2023-06-01T07:20:41;24.20;40.50
4312;DHT22;2169;49.086;9.284;2023-06-01T07:23:08;24.30;40.10
4312;DHT22;2169;49.086;9.284;2023-06-01T07:25:37;24.50;39.90
4312;DHT22;2169;49.086;9.284;2023-06-01T07:28:05;24.70;39.60
4312;DHT22;2169;49.086;9.284;2023-06-01T07:30:33;24.90;39.30
4312;DHT22;2169;49.086;9.284;2023-06-01T07:33:00;25.10;39.10
4312;DHT22;2169;49.086;9.284;2023-06-01T07:35:29;25.30;38.80
4312;DHT22;2169;49.086;9.284;2023-06-01T07:37:58;25.40;38.50
4312;DHT22;2169;49.086;9.284;2023-06-01T07:40:25;25.50;38.10
4312;DHT22;2169;49.086;9.284;2023-06-01T07:42:51;25.70;37.90
4312;DHT22;2169;49.086;9.284;2023-06-01T07:45:20;25.80;37.60
4312;DHT22;2169;49.086;9.284;2023-06-01T07:47:46;26.00;37.30
4312;DHT22;2169;49.086;9.284;2023-06-01T07:50:14;26.20;37.10
4312;DHT22;2169;49.086;9.284;2023-06-01T07:52:42;26.30;36.80
4312;DHT22;2169;49.086;9.284;2023-06-01T07:55:08;26.40;36.50
4312;DHT22;2169;49.086;9.284;2023-06-01T07:57:35;26.50;36.40
4312;DHT22;2169;49.086;9.284;2023-06-01T08:00:03;26.60;36.10
4312;DHT22;2169;49.086;9.284;2023-06-01T08:02:38;26.70;35.90
4312;DHT22;2169;49.086;9.284;2023-06-01T08:05:06;26.90;35.90
4312;DHT22;2169;49.086;9.284;2023-06-01T08:07:33;27.00;35.60
4312;DHT22;2169;49.086;9.284;2023-06-01T08:10:02;27.10;35.60
4312;DHT22;2169;49.086;9.284;2023-06-01T08:12:30;27.30;35.50
4312;DHT22;2169;49.086;9.284;2023-06-01T08:14:57;27.40;35.10
4312;DHT22;2169;49.086;9.284;2023-06-01T08:17:24;27.50;34.90
4312;DHT22;2169;49.086;9.284;2023-06-01T08:19:52;27.60;34.70
4312;DHT22;2169;49.086;9.284;2023-06-01T08:22:20;27.70;34.60
4312;DHT22;2169;49.086;9.284;2023-06-01T08:24:47;27.80;34.50
4312;DHT22;2169;49.086;9.284;2023-06-01T08:27:17;27.90;34.20
4312;DHT22;2169;49.086;9.284;2023-06-01T08:29:45;28.10;34.00
4312;DHT22;2169;49.086;9.284;2023-06-01T08:32:13;28.10;33.70
4312;DHT22;2169;49.086;9.284;2023-06-01T08:34:40;28.20;33.70
4312;DHT22;2169;49.086;9.284;2023-06-01T08:37:08;28.30;33.60
4312;DHT22;2169;49.086;9.284;2023-06-01T08:39:35;28.30;33.50
4312;DHT22;2169;49.086;9.284;2023-06-01T08:42:08;28.30;33.50
4312;DHT22;2169;49.086;9.284;2023-06-01T08:44:37;28.50;33.50
4312;DHT22;2169;49.086;9.284;2023-06-01T08:47:05;28.60;33.30
4312;DHT22;2169;49.086;9.284;2023-06-01T08:49:33;28.70;33.30
4312;DHT22;2169;49.086;9.284;2023-06-01T08:52:01;28.80;33.00
4312;DHT22;2169;49.086;9.284;2023-06-01T08:54:30;28.90;33.00
4312;DHT22;2169;49.086;9.284;2023-06-01T08:56:59;29.00;32.70
4312;DHT22;2169;49.086;9.284;2023-06-01T08:59:28;29.10;32.60
4312;DHT22;2169;49.086;9.284;2023-06-01T09:01:56;29.10;32.20
4312;DHT22;2169;49.086;9.284;2023-06-01T09:04:23;29.20;32.30
4312;DHT22;2169;49.086;9.284;2023-06-01T09:06:50;29.30;32.20
4312;DHT22;2169;49.086;9.284;2023-06-01T09:09:17;29.40;32.00
4312;DHT22;2169;49.086;9.284;2023-06-01T09:11:45;29.60;31.70
4312;DHT22;2169;49.086;9.284;2023-06-01T09:14:19;29.60;31.30
4312;DHT22;2169;49.086;9.284;2023-06-01T09:16:48;29.80;31.30
4312;DHT22;2169;49.086;9.284;2023-06-01T09:19:15;29.70;30.80
4312;DHT22;2169;49.086;9.284;2023-06-01T09:21:55;29.90;30.40
4312;DHT22;2169;49.086;9.284;2023-06-01T09:24:23;30.00;30.10
4312;DHT22;2169;49.086;9.284;2023-06-01T09:26:58;30.10;30.00
4312;DHT22;2169;49.086;9.284;2023-06-01T09:29:25;30.20;29.80
4312;DHT22;2169;49.086;9.284;2023-06-01T09:31:52;30.20;29.40
4312;DHT22;2169;49.086;9.284;2023-06-01T09:34:20;30.10;29.30
4312;DHT22;2169;49.086;9.284;2023-06-01T09:36:48;30.10;29.40
4312;DHT22;2169;49.086;9.284;2023-06-01T09:39:18;30.10;29.40
4312;DHT22;2169;49.086;9.284;2023-06-01T09:41:51;30.20;29.30
4312;DHT22;2169;49.086;9.284;2023-06-01T09:44:26;30.20;29.30
4312;DHT22;2169;49.086;9.284;2023-06-01T09:46:54;30.20;29.10
4312;DHT22;2169;49.086;9.284;2023-06-01T09:49:23;30.20;29.10
4312;DHT22;2169;49.086;9.284;2023-06-01T09:51:51;30.20;29.10
4312;DHT22;2169;49.086;9.284;2023-06-01T09:54:22;30.20;29.10
4312;DHT22;2169;49.086;9.284;2023-06-01T09:56:52;30.30;28.90
4312;DHT22;2169;49.086;9.284;2023-06-01T09:59:19;30.20;28.90
4312;DHT22;2169;49.086;9.284;2023-06-01T10:01:49;30.30;29.00
4312;DHT22;2169;49.086;9.284;2023-06-01T10:04:20;30.40;29.00
4312;DHT22;2169;49.086;9.284;2023-06-01T10:06:49;30.50;28.80
4312;DHT22;2169;49.086;9.284;2023-06-01T10:09:18;30.50;28.60
4312;DHT22;2169;49.086;9.284;2023-06-01T10:11:45;30.40;28.50
4312;DHT22;2169;49.086;9.284;2023-06-01T10:14:14;30.40;28.50
4312;DHT22;2169;49.086;9.284;2023-06-01T10:16:41;30.50;28.30
4312;DHT22;2169;49.086;9.284;2023-06-01T10:19:09;30.60;28.00
4312;DHT22;2169;49.086;9.284;2023-06-01T10:21:36;30.60;27.90
4312;DHT22;2169;49.086;9.284;2023-06-01T10:24:05;30.60;27.60
4312;DHT22;2169;49.086;9.284;2023-06-01T10:26:42;30.60;27.60
4312;DHT22;2169;49.086;9.284;2023-06-01T10:29:11;30.70;27.50
4312;DHT22;2169;49.086;9.284;2023-06-01T10:31:41;30.70;27.30
4312;DHT22;2169;49.086;9.284;2023-06-01T10:34:09;30.60;27.20
4312;DHT22;2169;49.086;9.284;2023-06-01T10:37:11;30.70;27.30
4312;DHT22;2169;49.086;9.284;2023-06-01T10:39:38;30.70;26.80
4312;DHT22;2169;49.086;9.284;2023-06-01T10:42:37;30.80;26.80
4312;DHT22;2169;49.086;9.284;2023-06-01T10:45:09;30.80;26.80
4312;DHT22;2169;49.086;9.284;2023-06-01T10:47:56;30.80;27.10
4312;DHT22;2169;49.086;9.284;2023-06-01T10:50:23;30.90;27.10
4312;DHT22;2169;49.086;9.284;2023-06-01T10:52:50;30.80;26.80
4312;DHT22;2169;49.086;9.284;2023-06-01T10:55:22;30.80;26.70
4312;DHT22;2169;49.086;9.284;2023-06-01T10:57:49;30.80;26.30
4312;DHT22;2169;49.086;9.284;2023-06-01T11:00:18;30.80;26.30
4312;DHT22;2169;49.086;9.284;2023-06-01T11:02:52;30.90;26.20
4312;DHT22;2169;49.086;9.284;2023-06-01T11:05:37;30.90;26.00
4312;DHT22;2169;49.086;9.284;2023-06-01T11:08:05;30.90;25.90
4312;DHT22;2169;49.086;9.284;2023-06-01T11:10:55;30.80;25.80
4312;DHT22;2169;49.086;9.284;2023-06-01T11:13:25;30.70;25.70
4312;DHT22;2169;49.086;9.284;2023-06-01T11:16:30;30.60;25.60
4312;DHT22;2169;49.086;9.284;2023-06-01T11:18:58;30.60;25.60
4312;DHT22;2169;49.086;9.284;2023-06-01T11:21:27;30.60;25.60
4312;DHT22;2169;49.086;9.284;2023-06-01T11:23:55;30.60;25.50
4312;DHT22;2169;49.086;9.284;2023-06-01T11:26:34;30.60;25.90
4312;DHT22;2169;49.086;9.284;2023-06-01T11:29:09;30.50;25.70
4312;DHT22;2169;49.086;9.284;2023-06-01T11:31:40;30.50;25.80
4312;DHT22;2169;49.086;9.284;2023-06-01T11:34:08;30.50;25.70
4312;DHT22;2169;49.086;9.284;2023-06-01T11:36:42;30.50;25.60
4312;DHT22;2169;49.086;9.284;2023-06-01T11:39:20;30.50;25.70
4312;DHT22;2169;49.086;9.284;2023-06-01T11:41:48;30.50;25.70
4312;DHT22;2169;49.086;9.284;2023-06-01T11:44:15;30.40;25.50
4312;DHT22;2169;49.086;9.284;2023-06-01T11:46:56;30.50;25.40
4312;DHT22;2169;49.086;9.284;2023-06-01T11:49:23;30.40;25.40
4312;DHT22;2169;49.086;9.284;2023-06-01T11:51:52;30.40;25.40
4312;DHT22;2169;49.086;9.284;2023-06-01T11:54:23;30.50;25.40
4312;DHT22;2169;49.086;9.284;2023-06-01T11:56:52;30.40;25.20
4312;DHT22;2169;49.086;9.284;2023-06-01T11:59:19;30.40;25.20
4312;DHT22;2169;49.086;9.284;2023-06-01T12:01:48;30.40;25.30
4312;DHT22;2169;49.086;9.284;2023-06-01T12:04:15;30.40;25.20
4312;DHT22;2169;49.086;9.284;2023-06-01T12:06:43;30.40;25.30
4312;DHT22;2169;49.086;9.284;2023-06-01T12:09:12;30.50;25.30
4312;DHT22;2169;49.086;9.284;2023-06-01T12:11:41;30.50;25.20
4312;DHT22;2169;49.086;9.284;2023-06-01T12:14:10;30.50;25.10
4312;DHT22;2169;49.086;9.284;2023-06-01T12:16:56;30.50;25.20
4312;DHT22;2169;49.086;9.284;2023-06-01T12:19:24;30.50;24.90
4312;DHT22;2169;49.086;9.284;2023-06-01T12:21:54;30.50;24.90
4312;DHT22;2169;49.086;9.284;2023-06-01T12:24:29;30.50;25.00
4312;DHT22;2169;49.086;9.284;2023-06-01T12:26:59;30.40;24.90
4312;DHT22;2169;49.086;9.284;2023-06-01T12:29:37;30.30;24.90
4312;DHT22;2169;49.086;9.284;2023-06-01T12:32:05;30.30;25.30
4312;DHT22;2169;49.086;9.284;2023-06-01T12:34:32;30.30;25.00
4312;DHT22;2169;49.086;9.284;2023-06-01T12:37:11;30.30;25.50
4312;DHT22;2169;49.086;9.284;2023-06-01T12:39:41;30.40;24.90
4312;DHT22;2169;49.086;9.284;2023-06-01T12:42:08;30.40;24.80
4312;DHT22;2169;49.086;9.284;2023-06-01T12:44:36;30.50;24.80
4312;DHT22;2169;49.086;9.284;2023-06-01T12:47:03;30.50;24.80
4312;DHT22;2169;49.086;9.284;2023-06-01T12:49:30;30.50;24.70
4312;DHT22;2169;49.086;9.284;2023-06-01T12:51:58;30.50;24.70
4312;DHT22;2169;49.086;9.284;2023-06-01T12:54:25;30.60;24.70
4312;DHT22;2169;49.086;9.284;2023-06-01T12:56:54;30.60;24.60
4312;DHT22;2169;49.086;9.284;2023-06-01T12:59:21;30.60;24.40
4312;DHT22;2169;49.086;9.284;2023-06-01T13:01:48;30.50;24.40
4312;DHT22;2169;49.086;9.284;2023-06-01T13:04:15;30.50;24.40
4312;DHT22;2169;49.086;9.284;2023-06-01T13:06:43;30.50;24.30
4312;DHT22;2169;49.086;9.284;2023-06-01T13:09:10;30.60;24.30
4312;DHT22;2169;49.086;9.284;2023-06-01T13:11:37;30.60;24.30
4312;DHT22;2169;49.086;9.284;2023-06-01T13:14:07;30.70;24.40
4312;DHT22;2169;49.086;9.284;2023-06-01T13:16:35;30.70;24.40
4312;DHT22;2169;49.086;9.284;2023-06-01T13:19:02;30.70;24.20
4312;DHT22;2169;49.086;9.284;2023-06-01T13:21:29;30.60;24.00
4312;DHT22;2169;49.086;9.284;2023-06-01T13:23:58;30.60;24.00
4312;DHT22;2169;49.086;9.284;2023-06-01T13:26:25;30.60;23.60
4312;DHT22;2169;49.086;9.284;2023-06-01T13:28:52;30.60;23.60
4312;DHT22;2169;49.086;9.284;2023-06-01T13:31:20;30.60;23.60
4312;DHT22;2169;49.086;9.284;2023-06-01T13:33:48;30.70;23.50
4312;DHT22;2169;49.086;9.284;2023-06-01T13:36:15;30.70;23.30
4312;DHT22;2169;49.086;9.284;2023-06-01T13:38:42;30.80;23.40
4312;DHT22;2169;49.086;9.284;2023-06-01T13:41:11;30.80;23.30
4312;DHT22;2169;49.086;9.284;2023-06-01T13:43:38;30.90;23.50
4312;DHT22;2169;49.086;9.284;2023-06-01T13:46:05;30.90;23.20
4312;DHT22;2169;49.086;9.284;2023-06-01T13:48:34;30.90;23.10
4312;DHT22;2169;49.086;9.284;2023-06-01T13:51:02;30.90;23.00
4312;DHT22;2169;49.086;9.284;2023-06-01T13:53:28;31.00;22.90
4312;DHT22;2169;49.086;9.284;2023-06-01T13:55:55;31.10;22.90
4312;DHT22;2169;49.086;9.284;2023-06-01T13:58:22;31.20;22.90
4312;DHT22;2169;49.086;9.284;2023-06-01T14:00:50;31.30;22.80
4312;DHT22;2169;49.086;9.284;2023-06-01T14:03:18;31.20;22.30
4312;DHT22;2169;49.086;9.284;2023-06-01T14:05:46;31.20;22.30
4312;DHT22;2169;49.086;9.284;2023-06-01T14:08:13;31.30;22.40
4312;DHT22;2169;49.086;9.284;2023-06-01T14:10:40;31.30;22.20
4312;DHT22;2169;49.086;9.284;2023-06-01T14:13:07;31.30;22.20
4312;DHT22;2169;49.086;9.284;2023-06-01T14:15:34;31.30;22.30
4312;DHT22;2169;49.086;9.284;2023-06-01T14:18:01;31.50;22.40
4312;DHT22;2169;49.086;9.284;2023-06-01T14:20:29;31.60;22.40
4312;DHT22;2169;49.086;9.284;2023-06-01T14:22:57;31.70;22.50
4312;DHT22;2169;49.086;9.284;2023-06-01T14:25:25;31.90;22.40
4312;DHT22;2169;49.086;9.284;2023-06-01T14:27:52;31.90;22.20
4312;DHT22;2169;49.086;9.284;2023-06-01T14:30:19;31.90;22.20
4312;DHT22;2169;49.086;9.284;2023-06-01T14:32:46;31.90;22.10
4312;DHT22;2169;49.086;9.284;2023-06-01T14:35:14;32.00;22.10
4312;DHT22;2169;49.086;9.284;2023-06-01T14:37:42;32.00;21.80
4312;DHT22;2169;49.086;9.284;2023-06-01T14:40:11;31.90;22.00
4312;DHT22;2169;49.086;9.284;2023-06-01T14:42:38;31.90;22.10
4312;DHT22;2169;49.086;9.284;2023-06-01T14:45:07;32.00;22.30
4312;DHT22;2169;49.086;9.284;2023-06-01T14:47:34;32.10;22.40
4312;DHT22;2169;49.086;9.284;2023-06-01T14:50:01;32.10;22.30
4312;DHT22;2169;49.086;9.284;2023-06-01T14:52:28;32.10;22.30
4312;DHT22;2169;49.086;9.284;2023-06-01T14:54:55;32.00;22.30
4312;DHT22;2169;49.086;9.284;2023-06-01T14:57:24;32.10;22.40
4312;DHT22;2169;49.086;9.284;2023-06-01T14:59:51;32.20;22.30
4312;DHT22;2169;49.086;9.284;2023-06-01T15:02:18;32.20;22.20
4312;DHT22;2169;49.086;9.284;2023-06-01T15:04:45;32.10;22.20
4312;DHT22;2169;49.086;9.284;2023-06-01T15:07:12;32.20;22.20
4312;DHT22;2169;49.086;9.284;2023-06-01T15:09:39;32.20;22.30
4312;DHT22;2169;49.086;9.284;2023-06-01T15:12:06;32.20;22.20
4312;DHT22;2169;49.086;9.284;2023-06-01T15:14:35;32.20;22.30
4312;DHT22;2169;49.086;9.284;2023-06-01T15:17:03;32.20;22.20
4312;DHT22;2169;49.086;9.284;2023-06-01T15:19:30;32.20;22.10
4312;DHT22;2169;49.086;9.284;2023-06-01T15:21:57;32.20;22.20
4312;DHT22;2169;49.086;9.284;2023-06-01T15:24:24;32.20;22.20
4312;DHT22;2169;49.086;9.284;2023-06-01T15:26:51;32.20;22.10
4312;DHT22;2169;49.086;9.284;2023-06-01T15:29:18;32.20;22.00
4312;DHT22;2169;49.086;9.284;2023-06-01T15:31:46;32.20;21.80
4312;DHT22;2169;49.086;9.284;2023-06-01T15:34:14;32.20;21.70
4312;DHT22;2169;49.086;9.284;2023-06-01T15:36:40;32.00;21.80
4312;DHT22;2169;49.086;9.284;2023-06-01T15:39:08;31.90;21.90
4312;DHT22;2169;49.086;9.284;2023-06-01T15:41:35;31.90;22.10
4312;DHT22;2169;49.086;9.284;2023-06-01T15:44:02;31.90;22.20
4312;DHT22;2169;49.086;9.284;2023-06-01T15:46:29;31.90;22.30
4312;DHT22;2169;49.086;9.284;2023-06-01T15:48:58;32.00;22.30
4312;DHT22;2169;49.086;9.284;2023-06-01T15:51:26;32.00;22.30
4312;DHT22;2169;49.086;9.284;2023-06-01T15:53:53;32.00;22.40
4312;DHT22;2169;49.086;9.284;2023-06-01T15:56:20;32.00;22.40
4312;DHT22;2169;49.086;9.284;2023-06-01T15:58:48;32.10;22.40
4312;DHT22;2169;49.086;9.284;2023-06-01T16:01:15;32.20;22.40
4312;DHT22;2169;49.086;9.284;2023-06-01T16:03:42;32.30;22.80
4312;DHT22;2169;49.086;9.284;2023-06-01T16:06:10;32.40;22.40
4312;DHT22;2169;49.086;9.284;2023-06-01T16:08:37;32.40;22.20
4312;DHT22;2169;49.086;9.284;2023-06-01T16:11:04;32.40;22.30